createdAt,value
2022-08-26T00:01:46.267Z,12.00
2022-08-26T00:04:13.999Z,11.38
2022-08-26T00:06:42.476Z,10.95
2022-08-26T00:09:16.007Z,12.27
2022-08-26T00:11:50.299Z,11.65
2022-08-26T00:14:17.766Z,11.48
2022-08-26T00:16:47.466Z,12.85
2022-08-26T00:19:16.008Z,12.38
2022-08-26T00:21:42.617Z,11.77
2022-08-26T00:24:09.186Z,11.75
2022-08-26T00:26:36.194Z,11.43
2022-08-26T00:29:03.765Z,11.65
2022-08-26T00:31:32.290Z,11.73
2022-08-26T00:33:59.447Z,11.80
2022-08-26T00:36:29.816Z,11.30
2022-08-26T00:38:58.098Z,11.23
2022-08-26T00:41:24.915Z,10.73
2022-08-26T00:43:52.948Z,12.15
2022-08-26T00:46:23.457Z,11.35
2022-08-26T00:48:53.745Z,11.13
2022-08-26T00:51:24.796Z,11.48
2022-08-26T00:54:07.517Z,12.75
2022-08-26T00:56:55.982Z,12.13
2022-08-26T00:59:26.678Z,12.30
2022-08-26T01:01:54.947Z,11.43
2022-08-26T01:04:23.415Z,12.48
2022-08-26T01:06:53.674Z,10.82
2022-08-26T01:09:22.560Z,10.98
2022-08-26T01:11:52.605Z,11.77
2022-08-26T01:14:22.321Z,12.45
2022-08-26T01:16:49.260Z,11.63
2022-08-26T01:19:36.123Z,12.48
2022-08-26T01:22:09.868Z,11.55
2022-08-26T01:24:39.141Z,12.35
2022-08-26T01:27:09.291Z,11.55
2022-08-26T01:29:39.366Z,12.85
2022-08-26T01:32:08.611Z,11.82
2022-08-26T01:34:38.040Z,11.07
2022-08-26T01:37:13.769Z,13.68
2022-08-26T01:39:46.330Z,11.55
2022-08-26T01:42:14.985Z,11.80
2022-08-26T01:44:46.062Z,12.27
2022-08-26T01:47:15.536Z,12.77
2022-08-26T01:49:45.554Z,11.82
2022-08-26T01:52:16.567Z,12.85
2022-08-26T01:54:43.425Z,13.10
2022-08-26T01:57:15.089Z,12.77
2022-08-26T01:59:42.723Z,12.45
2022-08-26T02:02:09.364Z,12.88
2022-08-26T02:04:43.856Z,12.20
2022-08-26T02:07:12.275Z,12.55
2022-08-26T02:09:41.643Z,12.57
2022-08-26T02:12:10.721Z,13.05
2022-08-26T02:14:44.029Z,13.02
2022-08-26T02:17:12.091Z,12.55
2022-08-26T02:19:45.168Z,12.77
2022-08-26T02:22:16.913Z,12.50
2022-08-26T02:25:08.786Z,13.20
2022-08-26T02:27:35.985Z,13.65
2022-08-26T02:30:11.304Z,12.98
2022-08-26T02:32:38.174Z,12.80
2022-08-26T02:35:08.922Z,12.68
2022-08-26T02:37:36.026Z,13.15
2022-08-26T02:40:05.162Z,13.50
2022-08-26T02:42:32.246Z,13.02
2022-08-26T02:45:01.695Z,12.70
2022-08-26T02:47:29.509Z,12.90
2022-08-26T02:49:59.345Z,13.27
2022-08-26T02:52:26.606Z,12.15
2022-08-26T02:54:55.197Z,12.68
2022-08-26T02:57:22.193Z,12.63
2022-08-26T02:59:49.346Z,12.82
2022-08-26T03:02:17.324Z,13.43
2022-08-26T03:04:57.858Z,12.95
2022-08-26T03:07:30.417Z,13.10
2022-08-26T03:09:57.997Z,12.07
2022-08-26T03:12:25.707Z,12.63
2022-08-26T03:14:53.184Z,13.00
2022-08-26T03:17:21.004Z,13.23
2022-08-26T03:19:49.835Z,12.32
2022-08-26T03:22:19.603Z,12.43
2022-08-26T03:24:48.529Z,13.05
2022-08-26T03:27:15.780Z,12.85
2022-08-26T03:30:02.658Z,12.93
2022-08-26T03:32:29.633Z,13.48
2022-08-26T03:34:57.477Z,13.50
2022-08-26T03:37:25.241Z,12.90
2022-08-26T03:39:52.586Z,13.27
2022-08-26T03:42:21.646Z,14.00
2022-08-26T03:44:48.826Z,14.13
2022-08-26T03:47:15.693Z,13.77
2022-08-26T03:49:42.408Z,12.27
2022-08-26T03:52:09.122Z,13.88
2022-08-26T03:54:36.830Z,13.98
2022-08-26T03:57:03.709Z,13.90
2022-08-26T03:59:31.750Z,12.93
2022-08-26T04:01:58.425Z,13.38
2022-08-26T04:04:25.664Z,13.18
2022-08-26T04:06:58.519Z,13.50
2022-08-26T04:09:26.501Z,14.68
2022-08-26T04:11:55.862Z,14.05
2022-08-26T04:14:27.805Z,13.77
2022-08-26T04:16:56.190Z,14.25
2022-08-26T04:19:27.088Z,13.35
2022-08-26T04:21:53.922Z,14.23
2022-08-26T04:24:23.801Z,13.02
2022-08-26T04:26:50.616Z,13.05
2022-08-26T04:29:20.594Z,14.05
2022-08-26T04:31:55.348Z,14.95
2022-08-26T04:34:28.555Z,13.35
2022-08-26T04:36:56.554Z,14.52
2022-08-26T04:39:27.808Z,14.32
2022-08-26T04:41:55.489Z,14.23
2022-08-26T04:44:24.845Z,13.82
2022-08-26T04:46:52.389Z,15.13
2022-08-26T04:49:20.818Z,15.15
2022-08-26T04:51:48.855Z,14.85
2022-08-26T04:54:16.269Z,15.57
2022-08-26T04:56:46.366Z,15.32
2022-08-26T04:59:18.055Z,14.15
2022-08-26T05:01:48.431Z,14.63
2022-08-26T05:04:18.729Z,14.13
2022-08-26T05:06:47.193Z,15.27
2022-08-26T05:09:15.292Z,14.85
2022-08-26T05:11:42.092Z,14.02
2022-08-26T05:14:09.623Z,15.13
2022-08-26T05:16:36.501Z,14.75
2022-08-26T05:19:06.799Z,14.05
2022-08-26T05:21:38.666Z,14.80
2022-08-26T05:24:11.048Z,14.35
2022-08-26T05:26:38.017Z,13.70
2022-08-26T05:29:06.793Z,13.65
2022-08-26T05:31:34.562Z,15.63
2022-08-26T05:34:04.721Z,14.50
2022-08-26T05:36:33.943Z,14.52
2022-08-26T05:39:03.657Z,15.27
2022-08-26T05:41:36.774Z,16.60
2022-08-26T05:44:08.135Z,14.15
2022-08-26T05:46:36.567Z,14.95
2022-08-26T05:49:06.117Z,14.43
2022-08-26T05:51:41.830Z,13.77
2022-08-26T05:54:10.851Z,15.55
2022-08-26T05:56:38.299Z,14.80
2022-08-26T05:59:04.954Z,15.45
2022-08-26T06:01:32.302Z,15.00
2022-08-26T06:04:02.717Z,15.48
2022-08-26T06:06:32.600Z,14.93
2022-08-26T06:09:01.952Z,15.48
2022-08-26T06:11:32.109Z,15.32
2022-08-26T06:14:03.953Z,14.93
2022-08-26T06:16:34.661Z,14.00
2022-08-26T06:19:03.074Z,14.18
2022-08-26T06:21:32.891Z,14.27
2022-08-26T06:24:21.248Z,13.85
2022-08-26T06:26:57.367Z,13.95
2022-08-26T06:29:26.037Z,15.02
2022-08-26T06:31:54.152Z,13.93
2022-08-26T06:34:29.722Z,15.23
2022-08-26T06:37:02.471Z,13.40
2022-08-26T06:39:30.884Z,13.35
2022-08-26T06:41:58.823Z,13.90
2022-08-26T06:44:25.758Z,13.05
2022-08-26T06:46:52.498Z,13.75
2022-08-26T06:49:27.510Z,13.80
2022-08-26T06:51:58.356Z,12.85
2022-08-26T06:54:26.620Z,14.82
2022-08-26T06:56:53.684Z,14.57
2022-08-26T06:59:21.119Z,13.80
2022-08-26T07:01:47.782Z,14.30
2022-08-26T07:04:21.986Z,14.63
2022-08-26T07:06:54.085Z,15.20
2022-08-26T07:09:23.646Z,13.73
2022-08-26T07:11:51.478Z,14.05
2022-08-26T07:14:21.569Z,13.70
2022-08-26T07:16:52.376Z,13.77
2022-08-26T07:19:31.031Z,13.48
2022-08-26T07:22:02.193Z,13.70
2022-08-26T07:24:29.900Z,13.52
2022-08-26T07:27:01.967Z,14.18
2022-08-26T07:29:29.831Z,14.70
2022-08-26T07:31:56.626Z,13.75
2022-08-26T07:34:24.047Z,14.05
2022-08-26T07:36:51.747Z,14.10
2022-08-26T07:39:19.112Z,14.23
2022-08-26T07:41:47.241Z,13.85
2022-08-26T07:44:15.024Z,14.27
2022-08-26T07:46:41.906Z,14.07
2022-08-26T07:49:12.017Z,16.08
2022-08-26T07:51:39.636Z,13.48
2022-08-26T07:54:06.993Z,14.02
2022-08-26T07:56:33.635Z,13.57
2022-08-26T07:59:03.050Z,13.63
2022-08-26T08:01:41.109Z,14.27
2022-08-26T08:04:13.846Z,14.18
2022-08-26T08:06:41.168Z,14.55
2022-08-26T08:09:13.169Z,14.60
2022-08-26T08:11:41.368Z,14.20
2022-08-26T08:14:11.640Z,14.00
2022-08-26T08:16:46.069Z,14.00
2022-08-26T08:19:15.165Z,14.00
2022-08-26T08:21:43.429Z,13.55
2022-08-26T08:24:11.137Z,14.15
2022-08-26T08:26:37.809Z,14.30
2022-08-26T08:29:08.308Z,13.65
2022-08-26T08:31:56.454Z,14.35
2022-08-26T08:34:24.230Z,13.90
2022-08-26T08:36:53.382Z,14.75
2022-08-26T08:39:20.646Z,13.65
2022-08-26T08:41:58.178Z,13.57
2022-08-26T08:47:11.643Z,15.27
2022-08-26T08:49:38.892Z,14.38
2022-08-26T08:52:31.009Z,14.30
2022-08-26T08:54:58.145Z,13.15
2022-08-26T08:57:48.237Z,13.88
2022-08-26T09:00:30.539Z,13.07
2022-08-26T09:03:03.792Z,13.80
2022-08-26T09:05:42.591Z,14.20
2022-08-26T09:08:19.751Z,14.55
2022-08-26T09:10:59.463Z,13.88
2022-08-26T09:13:27.475Z,13.80
2022-08-26T09:16:07.412Z,13.30
2022-08-26T09:18:46.302Z,13.25
2022-08-26T09:21:15.654Z,12.95
2022-08-26T09:23:49.271Z,14.73
2022-08-26T09:26:42.779Z,14.13
2022-08-26T09:29:23.944Z,13.82
2022-08-26T09:31:52.036Z,13.18
2022-08-26T09:34:27.286Z,13.27
2022-08-26T09:36:59.623Z,13.82
2022-08-26T09:39:39.009Z,14.37
2022-08-26T09:42:12.722Z,14.10
2022-08-26T09:44:57.877Z,14.48
2022-08-26T09:50:01.552Z,12.80
2022-08-26T09:52:28.872Z,12.40
2022-08-26T09:55:12.419Z,13.32
2022-08-26T09:57:47.415Z,13.77
2022-08-26T10:00:26.317Z,13.82
2022-08-26T10:02:57.897Z,13.50
2022-08-26T10:05:45.049Z,13.23
2022-08-26T10:08:21.679Z,13.52
2022-08-26T10:10:53.085Z,14.20
2022-08-26T10:13:36.496Z,13.35
2022-08-26T10:16:24.871Z,13.45
2022-08-26T10:19:09.730Z,13.57
2022-08-26T10:21:52.164Z,13.30
2022-08-26T10:24:44.284Z,12.60
2022-08-26T10:27:49.720Z,13.35
2022-08-26T10:30:27.513Z,12.13
2022-08-26T10:33:06.561Z,12.25
2022-08-26T10:35:36.721Z,12.38
2022-08-26T10:38:14.347Z,12.80
2022-08-26T10:40:40.941Z,12.75
2022-08-26T10:43:15.561Z,13.45
2022-08-26T10:46:08.382Z,13.15
2022-08-26T10:48:47.603Z,11.00
2022-08-26T10:51:24.688Z,11.32
2022-08-26T10:54:04.373Z,10.70
2022-08-26T10:56:43.126Z,11.52
2022-08-26T10:59:35.698Z,10.82
2022-08-26T11:04:48.457Z,10.90
2022-08-26T11:07:45.997Z,11.57
2022-08-26T11:10:38.452Z,10.65
2022-08-26T11:13:06.789Z,11.23
2022-08-26T11:15:36.714Z,10.48
2022-08-26T11:18:05.106Z,10.80
2022-08-26T11:20:39.319Z,10.00
2022-08-26T11:23:22.381Z,10.52
2022-08-26T11:26:05.170Z,9.52
2022-08-26T11:28:35.938Z,9.52
2022-08-26T11:31:05.836Z,10.13
2022-08-26T11:33:52.753Z,10.40
2022-08-26T11:36:42.844Z,9.82
2022-08-26T11:39:30.455Z,9.52
2022-08-26T11:42:02.678Z,9.50
2022-08-26T11:44:40.002Z,8.75
2022-08-26T11:47:11.331Z,10.50
2022-08-26T11:49:39.048Z,10.02
2022-08-26T11:52:26.305Z,8.75
2022-08-26T11:55:09.491Z,9.73
2022-08-26T11:57:45.354Z,9.23
2022-08-26T12:00:24.589Z,9.10
2022-08-26T12:02:52.712Z,9.70
2022-08-26T12:05:31.611Z,10.05
2022-08-26T12:08:07.010Z,10.38
2022-08-26T12:10:34.549Z,10.00
2022-08-26T12:13:03.800Z,9.52
2022-08-26T12:15:32.938Z,9.70
2022-08-26T12:18:29.181Z,9.05
2022-08-26T12:20:59.805Z,8.68
2022-08-26T12:23:54.625Z,9.07
2022-08-26T12:26:36.822Z,8.38
2022-08-26T12:29:20.312Z,8.88
2022-08-26T12:32:17.933Z,8.43
2022-08-26T12:34:48.983Z,8.18
2022-08-26T12:37:16.143Z,7.88
2022-08-26T12:39:45.712Z,8.18
2022-08-26T12:42:12.342Z,7.88
2022-08-26T12:44:53.437Z,8.05
2022-08-26T12:47:39.030Z,7.70
2022-08-26T12:50:25.671Z,7.40
2022-08-26T12:53:10.510Z,7.75
2022-08-26T12:55:45.137Z,8.07
2022-08-26T12:58:16.354Z,7.82
2022-08-26T13:00:46.146Z,7.57
2022-08-26T13:03:45.928Z,7.70
2022-08-26T13:06:26.236Z,8.00
2022-08-26T13:08:56.233Z,7.78
2022-08-26T13:11:39.478Z,7.28
2022-08-26T13:14:23.729Z,6.80
2022-08-26T13:16:51.673Z,7.93
2022-08-26T13:19:21.970Z,7.18
2022-08-26T13:21:55.563Z,7.35
2022-08-26T13:24:38.469Z,7.30
2022-08-26T13:27:07.717Z,7.72
2022-08-26T13:29:35.209Z,6.88
2022-08-26T13:32:03.052Z,7.38
2022-08-26T13:34:30.516Z,6.57
2022-08-26T13:36:57.866Z,6.93
2022-08-26T13:39:26.012Z,6.32
2022-08-26T13:41:53.358Z,6.30
2022-08-26T13:44:19.940Z,5.90
2022-08-26T13:46:46.554Z,6.32
2022-08-26T13:49:13.760Z,5.93
2022-08-26T13:51:41.762Z,6.10
2022-08-26T13:54:08.578Z,6.00
2022-08-26T13:56:36.181Z,5.88
2022-08-26T13:59:03.305Z,6.35
2022-08-26T14:01:31.579Z,6.18
2022-08-26T14:04:01.993Z,5.90
2022-08-26T14:06:30.420Z,6.10
2022-08-26T14:08:58.637Z,6.30
2022-08-26T14:11:30.227Z,6.45
2022-08-26T14:14:16.682Z,6.75
2022-08-26T14:16:59.508Z,5.60
2022-08-26T14:19:30.630Z,5.90
2022-08-26T14:21:58.769Z,6.13
2022-08-26T14:24:25.394Z,6.38
2022-08-26T14:26:52.277Z,7.20
2022-08-26T14:29:19.025Z,6.43
2022-08-26T14:31:46.555Z,6.22
2022-08-26T14:34:13.986Z,5.47
2022-08-26T14:36:41.217Z,5.80
2022-08-26T14:39:10.801Z,5.60
2022-08-26T14:41:53.943Z,6.00
2022-08-26T14:44:24.412Z,6.15
2022-08-26T14:46:52.828Z,5.70
2022-08-26T14:49:21.951Z,5.90
2022-08-26T14:51:48.635Z,5.40
2022-08-26T14:54:16.640Z,5.80
2022-08-26T14:56:46.163Z,6.65
2022-08-26T14:59:21.753Z,7.30
2022-08-26T15:01:49.007Z,6.18
2022-08-26T15:04:16.675Z,6.38
2022-08-26T15:06:43.545Z,5.95
2022-08-26T15:09:10.795Z,5.90
2022-08-26T15:11:38.032Z,5.22
2022-08-26T15:14:05.510Z,5.32
2022-08-26T15:16:33.559Z,5.82
2022-08-26T15:19:04.606Z,5.55
2022-08-26T15:21:33.909Z,5.70
2022-08-26T15:24:00.953Z,7.03
2022-08-26T15:26:30.185Z,6.93
2022-08-26T15:28:58.386Z,6.43
2022-08-26T15:31:31.240Z,6.40
2022-08-26T15:33:59.706Z,6.63
2022-08-26T15:36:28.820Z,6.57
2022-08-26T15:38:56.541Z,7.32
2022-08-26T15:41:23.277Z,6.95
2022-08-26T15:43:51.525Z,7.32
2022-08-26T15:46:18.673Z,8.93
2022-08-26T15:48:45.797Z,9.27
2022-08-26T15:51:24.509Z,9.07
2022-08-26T15:53:52.464Z,9.25
2022-08-26T15:56:19.368Z,10.85
2022-08-26T15:58:46.712Z,10.30
2022-08-26T16:01:14.825Z,9.00
2022-08-26T16:03:45.196Z,8.95
2022-08-26T16:06:16.151Z,10.98
2022-08-26T16:08:45.101Z,12.70
2022-08-26T16:11:13.435Z,12.45
2022-08-26T16:13:40.679Z,13.68
2022-08-26T16:16:08.019Z,13.52
2022-08-26T16:18:34.895Z,14.55
2022-08-26T16:21:13.604Z,13.13
2022-08-26T16:23:44.860Z,10.38
2022-08-26T16:26:22.239Z,5.78
2022-08-26T16:28:49.417Z,6.68
2022-08-26T16:31:16.908Z,4.30
2022-08-26T16:33:43.959Z,8.57
2022-08-26T16:36:11.298Z,7.18
2022-08-26T16:38:38.961Z,6.78
2022-08-26T16:41:06.634Z,6.00
2022-08-26T16:43:33.715Z,5.25
2022-08-26T16:46:00.615Z,5.70
2022-08-26T16:48:29.762Z,5.47
2022-08-26T16:50:56.420Z,5.38
2022-08-26T16:53:23.651Z,5.95
2022-08-26T16:55:50.713Z,6.35
2022-08-26T16:58:17.827Z,6.32
2022-08-26T17:00:45.134Z,5.90
2022-08-26T17:03:12.306Z,5.70
2022-08-26T17:05:40.239Z,6.53
2022-08-26T17:08:07.294Z,7.47
2022-08-26T17:10:34.167Z,7.78
2022-08-26T17:13:00.923Z,7.78
2022-08-26T17:15:27.815Z,8.45
2022-08-26T17:17:56.697Z,9.27
2022-08-26T17:20:25.685Z,9.70
2022-08-26T17:22:54.904Z,10.65
2022-08-26T17:25:26.791Z,12.32
2022-08-26T17:27:54.244Z,14.90
2022-08-26T17:30:21.902Z,16.77
2022-08-26T17:32:49.518Z,19.40
2022-08-26T17:35:16.854Z,18.45
2022-08-26T17:37:43.894Z,18.92
2022-08-26T17:40:16.099Z,20.02
2022-08-26T17:42:46.629Z,20.30
2022-08-26T17:45:14.664Z,20.58
2022-08-26T17:47:41.342Z,20.65
2022-08-26T17:50:11.149Z,20.50
2022-08-26T17:52:38.789Z,22.77
2022-08-26T17:55:07.377Z,22.77
2022-08-26T17:57:39.749Z,21.90
2022-08-26T18:00:12.500Z,23.88
2022-08-26T18:02:40.265Z,22.40
2022-08-26T18:05:11.930Z,23.95
2022-08-26T18:07:43.824Z,23.48
2022-08-26T18:10:14.604Z,25.15
2022-08-26T18:12:41.689Z,22.45
2022-08-26T18:15:10.420Z,24.85
2022-08-26T18:17:39.337Z,24.00
2022-08-26T18:20:15.525Z,26.05
2022-08-26T18:22:43.534Z,25.90
2022-08-26T18:25:11.844Z,25.27
2022-08-26T18:27:39.099Z,24.15
2022-08-26T18:30:14.597Z,26.23
2022-08-26T18:32:43.324Z,24.70
2022-08-26T18:35:13.852Z,24.90
2022-08-26T18:37:40.846Z,23.77
2022-08-26T18:40:10.366Z,24.63
2022-08-26T18:42:38.420Z,25.80
2022-08-26T18:45:06.513Z,24.90
2022-08-26T18:47:34.475Z,22.30
2022-08-26T18:50:03.435Z,24.83
2022-08-26T18:52:31.641Z,26.00
2022-08-26T18:54:59.433Z,26.33
2022-08-26T18:57:26.066Z,24.45
2022-08-26T18:59:52.909Z,25.08
2022-08-26T19:02:21.606Z,25.20
2022-08-26T19:04:48.701Z,25.27
2022-08-26T19:07:15.584Z,25.73
2022-08-26T19:09:45.031Z,26.13
2022-08-26T19:12:11.657Z,25.33
2022-08-26T19:14:38.314Z,25.55
2022-08-26T19:17:05.821Z,26.50
2022-08-26T19:19:32.869Z,25.13
2022-08-26T19:21:59.957Z,26.38
2022-08-26T19:24:28.415Z,25.15
2022-08-26T19:26:59.397Z,25.40
2022-08-26T19:29:31.414Z,24.30
2022-08-26T19:31:58.841Z,23.50
2022-08-26T19:34:26.658Z,25.27
2022-08-26T19:36:57.683Z,26.27
2022-08-26T19:39:25.966Z,28.15
2022-08-26T19:41:55.712Z,25.17
2022-08-26T19:44:44.584Z,24.90
2022-08-26T19:47:12.131Z,25.63
2022-08-26T19:49:39.136Z,25.27
2022-08-26T19:52:06.285Z,21.15
2022-08-26T19:54:35.159Z,18.23
2022-08-26T19:57:02.182Z,15.18
2022-08-26T19:59:29.262Z,15.32
2022-08-26T20:02:00.665Z,14.57
2022-08-26T20:04:30.442Z,14.87
2022-08-26T20:06:58.661Z,14.77
2022-08-26T20:09:31.622Z,15.25
2022-08-26T20:11:58.698Z,14.20
2022-08-26T20:14:26.477Z,14.15
2022-08-26T20:16:56.636Z,14.60
2022-08-26T20:19:41.921Z,14.00
2022-08-26T20:22:09.767Z,14.85
2022-08-26T20:24:37.838Z,14.65
2022-08-26T20:27:08.029Z,14.50
2022-08-26T20:29:35.988Z,14.63
2022-08-26T20:32:03.890Z,14.85
2022-08-26T20:34:31.693Z,17.33
2022-08-26T20:36:59.303Z,17.80
2022-08-26T20:39:29.457Z,17.83
2022-08-26T20:41:57.642Z,16.73
2022-08-26T20:44:25.347Z,16.85
2022-08-26T20:46:52.976Z,16.40
2022-08-26T20:49:19.729Z,14.70
2022-08-26T20:51:51.339Z,13.85
2022-08-26T20:54:20.108Z,14.35
2022-08-26T20:56:47.526Z,12.90
2022-08-26T20:59:14.537Z,12.38
2022-08-26T21:01:42.802Z,11.90
2022-08-26T21:04:13.077Z,11.98
2022-08-26T21:06:45.125Z,11.43
2022-08-26T21:09:25.750Z,11.05
2022-08-26T21:14:22.744Z,10.45
2022-08-26T21:16:52.548Z,10.18
2022-08-26T21:19:19.508Z,10.27
2022-08-26T21:21:47.928Z,9.80
2022-08-26T21:24:15.056Z,9.35
2022-08-26T21:26:42.155Z,9.57
2022-08-26T21:29:10.093Z,8.32
2022-08-26T21:31:40.979Z,9.05
2022-08-26T21:34:11.783Z,9.40
2022-08-26T21:36:38.371Z,9.05
2022-08-26T21:39:10.720Z,9.40
2022-08-26T21:41:39.445Z,8.88
2022-08-26T21:44:07.849Z,8.55
2022-08-26T21:46:37.092Z,9.07
2022-08-26T21:49:10.502Z,8.60
2022-08-26T21:51:44.286Z,7.85
2022-08-26T21:54:12.699Z,8.02
2022-08-26T21:56:45.029Z,7.70
2022-08-26T21:59:13.351Z,7.60
2022-08-26T22:01:40.071Z,7.63
2022-08-26T22:04:08.556Z,7.28
2022-08-26T22:06:40.737Z,7.38
2022-08-26T22:09:07.754Z,6.80
2022-08-26T22:11:34.417Z,6.93
2022-08-26T22:14:01.250Z,6.82
2022-08-26T22:16:33.057Z,6.53
2022-08-26T22:18:59.934Z,6.38
2022-08-26T22:21:30.706Z,6.90
2022-08-26T22:23:58.687Z,8.00
2022-08-26T22:26:28.986Z,6.72
2022-08-26T22:28:59.626Z,7.45
2022-08-26T22:31:37.953Z,7.28
2022-08-26T22:34:08.230Z,6.85
2022-08-26T22:36:35.485Z,7.10
2022-08-26T22:39:10.465Z,6.90
2022-08-26T22:41:37.343Z,6.63
2022-08-26T22:44:04.562Z,6.50
2022-08-26T22:46:32.886Z,7.25
2022-08-26T22:48:59.555Z,7.18
2022-08-26T22:51:27.770Z,6.68
2022-08-26T22:53:54.418Z,6.22
2022-08-26T22:56:22.007Z,6.03
2022-08-26T22:58:56.838Z,6.03
2022-08-26T23:01:23.830Z,7.03
2022-08-26T23:03:50.697Z,6.15
2022-08-26T23:06:17.385Z,5.70
2022-08-26T23:08:46.252Z,5.70
2022-08-26T23:11:14.253Z,5.32
2022-08-26T23:13:45.851Z,6.60
2022-08-26T23:16:13.146Z,6.15
2022-08-26T23:18:40.853Z,5.78
2022-08-26T23:21:08.436Z,6.82
2022-08-26T23:23:35.286Z,5.97
2022-08-26T23:26:05.921Z,6.22
2022-08-26T23:28:33.623Z,6.65
2022-08-26T23:31:01.714Z,7.68
2022-08-26T23:33:48.543Z,6.00
2022-08-26T23:36:18.185Z,6.22
2022-08-26T23:38:52.471Z,6.45
2022-08-26T23:41:23.192Z,5.53
2022-08-26T23:43:51.494Z,6.05
2022-08-26T23:46:20.637Z,5.57
2022-08-26T23:48:48.669Z,5.90
2022-08-26T23:51:34.087Z,5.78
2022-08-26T23:54:00.885Z,5.80
2022-08-26T23:56:28.557Z,5.35
2022-08-26T23:58:55.900Z,6.28
